Terminal Aerodrome Forecast
Issued by NWS Sioux Falls, SD

Home | Current Version | Previous Version | Text Only | Print | Product List | Glossary Off
Versions: 1 2 3 4 5 6 7 8 9 10 11 12

000
FTUS43 KFSD 011131
TAFFSD
TAF
KFSD 011131Z 0112/0212 10005KT P6SM BKN150 OVC250
      TEMPO 0112/0114 5SM BR
     FM011400 14008KT P6SM BKN150 OVC250
     FM011800 17012KT P6SM SCT120 BKN200
     FM020100 15012KT P6SM SCT100 BKN200 PROB30 0203/0205 P6SM -TSRA
      BKN080CB
     FM020900 16009KT P6SM SCT080=

USA.gov is the U.S. government's official web portal to all federal, state and local government web resources and services.